Latest Weather Observations for Leinster

IDW60801

Issued at 6:32 pm WST Thursday 26 May 2016 (issued every 30 minutes, with the page automatically refreshed every 10 minutes)

About weather observations | Map of weather stations | Latest weather observations for WA | Other Formats
Station Details ID: 012314 Name: LEINSTER AERO Lat: -27.84 Lon: 120.70 Height: 497.0 m
Data from the previous 72 hours. | See also: Recent months at Leinster
Date/Time
WST
Temp
°C
App
Temp
°C
Dew
Point
Rel
Hum
%
Delta-T
°C
Wind Press
QNH
hPa
Press
MSL
hPa
Rain
since 9 am
mm
Dir
 
Spd
km/h
Gust
km/h
Spd
kts
Gust
kts
26/06:30pm 16.0 13.4 9.4 65 3.5 S 13 19 7 10 1020.6 1019.3 0.2
26/06:00pm 16.4 13.4 9.3 63 3.8 S 15 22 8 12 1020.7 1019.4 0.2
26/05:30pm 16.8 13.4 9.0 60 4.1 S 17 22 9 12 1020.0 1018.8 0.2
26/05:00pm 17.1 13.6 8.8 58 4.4 SSW 17 22 9 12 1019.4 1018.2 0.2
26/04:30pm 17.7 14.2 8.6 55 4.8 SSW 17 22 9 12 1019.0 1017.7 0.2
26/04:00pm 18.2 14.9 7.9 51 5.4 SSW 15 20 8 11 1018.8 1017.5 0.2
26/03:30pm 18.5 15.1 7.6 49 5.7 SSW 15 20 8 11 1018.8 1017.5 0.2
26/03:00pm 18.8 14.8 8.2 50 5.6 SSW 19 24 10 13 1018.9 1017.6 0.2
26/02:30pm 18.8 15.1 7.9 49 5.7 SW 17 24 9 13 1018.1 1016.9 0.2
26/02:00pm 19.0 15.7 8.1 49 5.7 SW 15 22 8 12 1017.9 1016.7 0.2
26/01:30pm 18.9 14.7 7.4 47 6.0 SSW 19 24 10 13 1018.1 1016.9 0.2
26/01:00pm 19.4 15.1 6.8 44 6.5 SW 19 26 10 14 1017.9 1016.7 0.2
26/12:30pm 18.7 14.5 7.5 48 5.8 SSW 19 28 10 15 1018.3 1017.0 0.2
26/12:00pm 19.3 15.5 7.4 46 6.2 SW 17 26 9 14 1018.1 1016.9 0.2
26/11:30am 18.6 14.2 7.4 48 5.8 SSW 20 30 11 16 1018.9 1017.6 0.2
26/11:00am 18.9 15.6 8.0 49 5.7 WSW 15 24 8 13 1019.1 1017.8 0.2
26/10:30am 17.4 15.0 8.5 56 4.7 S 11 15 6 8 1019.4 1018.2 0.2
26/10:00am 17.3 14.3 9.2 59 4.3 S 15 20 8 11 1019.8 1018.6 0.0
26/09:30am 16.3 12.8 8.8 61 3.9 S 17 22 9 12 1019.0 1017.7 0.0
26/09:00am 15.8 13.5 11.6 76 2.3 SSW 15 20 8 11 1019.1 1017.8 0.8
26/08:30am 15.4 14.1 13.6 89 1.0 SSW 13 19 7 10 1018.4 1017.1 0.8
26/08:00am 15.2 14.2 14.7 97 0.3 SW 13 19 7 10 1018.1 1016.9 0.8
26/07:30am 13.6 14.7 13.4 99 0.1 CALM 0 2 0 1 1017.3 1016.0 0.8
26/07:00am 12.7 13.5 12.5 99 0.1 CALM 0 6 0 3 1016.5 1015.2 0.8
26/06:30am 13.1 12.9 12.9 99 0.1 NW 6 9 3 5 1016.6 1015.3 0.8
26/06:00am 13.5 14.2 13.3 99 0.1 NNE 2 7 1 4 1015.8 1014.6 0.8
26/05:30am 13.7 14.8 13.5 99 0.1 CALM 0 9 0 5 1016.0 1014.8 0.8
26/05:00am 13.6 13.3 13.4 99 0.1 SSW 7 11 4 6 1015.7 1014.4 0.8
26/04:30am 14.0 13.5 13.8 99 0.1 SW 9 13 5 7 1015.7 1014.4 0.8
26/04:25am 14.1 13.6 13.9 99 0.1 SW 9 11 5 6 1015.7 1014.4 0.8
26/04:02am 14.1 13.6 13.9 99 0.1 WSW 9 15 5 8 1015.7 1014.4 0.8
26/04:00am 14.1 14.0 13.9 99 0.1 WSW 7 13 4 7 1015.6 1014.3 0.8
26/03:30am 14.1 14.2 13.9 99 0.1 NW 6 7 3 4 1014.5 1013.2 0.8
26/03:00am 14.1 14.2 13.9 99 0.1 WNW 6 7 3 4 1014.7 1013.4 0.8
26/02:30am 14.2 14.1 14.0 99 0.1 W 7 9 4 5 1015.2 1013.9 0.8
26/02:00am 14.2 14.1 13.9 98 0.2 NW 7 9 4 5 1014.9 1013.6 0.8
26/01:30am 14.2 14.3 13.9 98 0.2 NW 6 7 3 4 1014.7 1013.4 0.8
26/01:00am 14.2 14.1 13.9 98 0.2 WNW 7 7 4 4 1015.0 1013.7 0.8
26/12:30am 14.1 14.2 13.8 98 0.2 NNW 6 7 3 4 1014.6 1013.3 0.8
26/12:00am 14.0 14.0 13.7 98 0.2 NNW 6 7 3 4 1014.9 1013.6 0.8
 
Date/Time
WST
Temp
°C
App
Temp
°C
Dew
Point
Rel
Hum
%
Delta-T
°C
Wind Press
QNH
hPa
Press
MSL
hPa
Rain
since 9 am
mm
Dir
 
Spd
km/h
Gust
km/h
Spd
kts
Gust
kts
25/11:30pm 13.6 12.9 13.3 98 0.2 NW 9 9 5 5 1015.3 1014.0 0.8
25/11:00pm 13.2 12.8 12.9 98 0.2 NNW 7 7 4 4 1015.2 1013.9 0.8
25/10:30pm 14.1 14.1 13.6 97 0.3 NNW 6 7 3 4 1015.2 1013.9 0.8
25/10:00pm 14.4 14.0 14.1 98 0.2 NNW 9 9 5 5 1015.5 1014.2 0.8
25/09:30pm 14.2 14.1 13.9 98 0.2 NNW 7 9 4 5 1015.2 1013.9 0.8
25/09:00pm 14.0 13.8 13.7 98 0.2 NW 7 9 4 5 1015.3 1014.0 0.8
25/08:30pm 14.5 14.4 14.0 97 0.3 NNW 7 7 4 4 1015.1 1013.8 0.8
25/08:00pm 15.0 15.3 13.5 91 0.9 WNW 4 6 2 3 1015.1 1013.8 0.8
25/07:30pm 15.4 15.0 13.1 86 1.3 WNW 7 9 4 5 1015.0 1013.7 0.8
25/07:00pm 15.7 15.3 13.0 84 1.5 WNW 7 9 4 5 1015.0 1013.7 0.8
25/06:30pm 15.9 15.4 12.8 82 1.8 WNW 7 9 4 5 1014.9 1013.6 0.8
25/06:00pm 15.9 15.0 12.5 80 1.9 WNW 9 9 5 5 1014.4 1013.1 0.8
25/05:30pm 16.0 15.1 12.7 81 1.9 WNW 9 11 5 6 1014.0 1012.6 0.8
25/05:00pm 16.0 14.9 12.0 77 2.2 W 9 11 5 6 1013.8 1012.5 0.8
25/04:30pm 16.2 15.3 12.7 80 2.0 WSW 9 11 5 6 1013.8 1012.5 0.8
25/04:00pm 16.2 15.7 12.6 79 2.0 W 7 13 4 7 1013.4 1012.1 0.8
25/03:30pm 16.1 15.2 12.5 79 2.0 WSW 9 15 5 8 1013.4 1012.1 0.8
25/03:00pm 15.8 15.2 13.5 86 1.3 WSW 9 13 5 7 1013.1 1011.8 0.8
25/02:30pm 16.1 15.2 13.6 85 1.4 WNW 11 15 6 8 1013.1 1011.8 0.8
25/02:09pm 15.9 15.1 14.1 89 1.0 WSW 11 15 6 8 1013.1 1011.8 0.8
25/02:00pm 15.5 14.7 13.9 90 0.9 WSW 11 15 6 8 1013.1 1011.8 0.8
25/01:30pm 15.1 13.9 14.1 94 0.6 WSW 13 17 7 9 1013.0 1011.7 0.6
25/01:00pm 14.9 14.2 14.4 97 0.3 SW 11 17 6 9 1013.1 1011.8 0.6
25/12:38pm 14.7 14.0 14.2 97 0.3 SW 11 15 6 8 1013.3 1012.0 0.6
25/12:30pm 14.6 13.9 14.3 98 0.2 SW 11 15 6 8 1013.3 1012.0 0.6
25/12:00pm 14.6 12.7 14.3 98 0.2 SSW 17 20 9 11 1013.7 1012.4 0.6
25/11:45am 14.8 13.7 14.3 97 0.3 SSW 13 19 7 10 1013.7 1012.4 0.6
25/11:30am 14.8 13.7 14.3 97 0.3 SSW 13 19 7 10 1014.0 1012.6 0.6
25/11:07am 15.1 13.6 14.1 94 0.6 SSW 15 20 8 11 1014.1 1012.8 0.6
25/11:06am 15.1 13.6 14.1 94 0.6 SSW 15 20 8 11 1014.0 1012.6 0.6
25/11:00am 15.2 13.9 14.7 97 0.3 SSW 15 19 8 10 1014.0 1012.6 0.6
25/10:54am 15.0 13.6 14.5 97 0.3 SSW 15 22 8 12 1014.0 1012.6 0.6
25/10:44am 15.0 13.2 14.5 97 0.3 SSW 17 20 9 11 1014.1 1012.8 0.6
25/10:30am 14.7 12.9 14.4 98 0.2 SSW 17 26 9 14 1013.7 1012.4 0.6
25/10:27am 14.6 12.4 14.3 98 0.2 SSW 19 26 10 14 1013.7 1012.4 0.6
25/10:00am 14.7 12.9 14.5 99 0.1 SSW 17 22 9 12 1014.0 1012.6 0.4
25/09:38am 14.9 13.9 14.6 98 0.2 SSW 13 20 7 11 1014.0 1012.6 0.0
25/09:30am 15.2 14.3 14.9 98 0.2 S 13 19 7 10 1013.7 1012.4 0.0
25/09:28am 15.3 14.5 15.0 98 0.2 S 13 19 7 10 1013.7 1012.4 0.0
25/09:04am 15.1 14.6 14.9 99 0.1 SSW 11 15 6 8 1013.3 1012.0 0.0
25/09:00am 14.9 14.7 14.7 99 0.1 SSW 9 15 5 8 1013.4 1012.1 0.8
25/08:30am 14.5 13.8 14.3 99 0.1 SSW 11 15 6 8 1013.2 1011.9 0.6
25/08:18am 14.5 13.8 14.3 99 0.1 SSW 11 15 6 8 1013.2 1011.9 0.4
25/08:00am 14.5 14.7 14.3 99 0.1 S 6 9 3 5 1013.0 1011.7 0.4
25/07:59am 14.6 14.9 14.4 99 0.1 S 6 9 3 5 1013.0 1011.7 0.4
25/07:30am 14.2 14.1 14.0 99 0.1 S 7 9 4 5 1012.8 1011.5 0.4
25/07:10am 14.3 14.3 14.1 99 0.1 S 7 9 4 5 1012.9 1011.6 0.2
25/07:00am 14.3 13.9 14.0 98 0.2 S 9 11 5 6 1012.6 1011.3 0.2
25/06:58am 14.3 13.9 14.0 98 0.2 S 9 11 5 6 1012.6 1011.3 0.0
25/06:53am 14.4 14.0 14.1 98 0.2 S 9 13 5 7 1012.5 1011.2 0.0
25/06:30am 14.6 13.9 14.3 98 0.2 SSE 11 13 6 7 1012.1 1010.7 0.0
25/06:17am 14.5 14.1 14.2 98 0.2 S 9 15 5 8 1011.9 1010.5 0.0
25/06:00am 14.5 13.8 14.2 98 0.2 SSW 11 15 6 8 1012.0 1010.6 0.0
25/05:30am 14.4 13.2 14.1 98 0.2 SSW 13 17 7 9 1011.6 1010.3 0.0
25/05:27am 14.5 13.4 14.2 98 0.2 SSW 13 19 7 10 1011.5 1010.2 0.0
25/05:07am 14.4 12.5 14.1 98 0.2 SSW 17 22 9 12 1011.4 1010.1 0.0
25/05:00am 14.4 12.5 14.1 98 0.2 SSW 17 24 9 13 1011.5 1010.2 0.0
25/04:52am 14.6 12.4 14.3 98 0.2 SW 19 26 10 14 1011.5 1010.2 0.0
25/04:30am 15.2 13.0 14.9 98 0.2 SW 20 35 11 19 1011.2 1009.9 0.0
25/04:24am 15.7 14.2 15.4 98 0.2 WSW 17 22 9 12 1011.0 1009.7 0.0
25/04:00am 16.2 14.4 15.9 98 0.2 W 20 30 11 16 1010.7 1009.4 0.0
25/03:58am 16.3 14.5 16.0 98 0.2 W 20 30 11 16 1010.8 1009.5 0.0
25/03:57am 16.4 14.6 15.9 97 0.3 W 20 30 11 16 1010.8 1009.5 0.0
25/03:30am 16.4 14.9 15.3 93 0.7 WNW 17 22 9 12 1010.5 1009.1 0.0
25/03:18am 16.2 14.7 15.2 94 0.6 WNW 17 28 9 15 1010.6 1009.3 0.0
25/03:03am 15.9 12.4 14.4 91 0.9 WNW 26 44 14 24 1010.7 1009.4 0.0
25/03:00am 16.4 13.1 14.1 86 1.3 WNW 24 44 13 24 1010.9 1009.6 0.0
25/02:30am 17.1 14.1 12.6 75 2.6 WNW 20 32 11 17 1011.2 1009.9 0.0
25/02:00am 17.3 15.6 12.6 74 2.7 W 13 19 7 10 1010.9 1009.6 0.0
25/01:30am 17.4 15.7 12.3 72 2.9 W 13 19 7 10 1011.1 1009.8 0.0
25/01:00am 17.6 16.0 11.4 67 3.5 W 11 15 6 8 1011.5 1010.2 0.0
25/12:30am 18.4 15.9 9.7 57 4.7 SSW 13 17 7 9 1011.3 1010.0 0.0
25/12:00am 19.9 16.6 7.9 46 6.4 SW 15 20 8 11 1011.3 1010.0 0.0
 
Date/Time
WST
Temp
°C
App
Temp
°C
Dew
Point
Rel
Hum
%
Delta-T
°C
Wind Press
QNH
hPa
Press
MSL
hPa
Rain
since 9 am
mm
Dir
 
Spd
km/h
Gust
km/h
Spd
kts
Gust
kts
24/11:30pm 20.9 17.5 6.1 38 7.6 WSW 13 17 7 9 1011.0 1009.7 0.0
24/11:00pm 21.1 17.3 5.9 37 7.8 SW 15 22 8 12 1011.1 1009.8 0.0
24/10:30pm 22.2 18.9 4.7 32 8.8 NW 11 19 6 10 1011.0 1009.7 0.0
24/10:00pm 21.8 18.5 4.8 33 8.6 N 11 15 6 8 1011.0 1009.7 0.0
24/09:30pm 21.8 19.3 4.8 33 8.6 NW 7 9 4 5 1011.2 1009.9 0.0
24/09:00pm 22.2 19.3 4.7 32 8.8 NNW 9 11 5 6 1011.4 1010.1 0.0
24/08:30pm 21.8 18.9 4.8 33 8.6 NNW 9 11 5 6 1011.5 1010.2 0.0
24/08:00pm 23.1 20.6 4.6 30 9.4 WNW 7 11 4 6 1011.6 1010.3 0.0
24/07:30pm 24.1 20.0 4.5 28 10.0 W 15 20 8 11 1011.7 1010.4 0.0
24/07:00pm 24.3 19.4 4.1 27 10.2 W 19 26 10 14 1011.4 1010.1 0.0
24/06:30pm 24.8 19.8 3.5 25 10.7 W 19 35 10 19 1011.3 1010.0 0.0
24/06:00pm 25.0 19.8 3.6 25 10.8 WNW 20 32 11 17 1010.9 1009.6 0.0
24/05:30pm 25.3 19.6 2.7 23 11.2 WNW 22 35 12 19 1010.3 1008.9 0.0
24/05:00pm 25.7 19.2 2.4 22 11.6 WNW 26 39 14 21 1010.0 1008.6 0.0
24/04:31pm 26.3 19.5 2.9 22 11.7 NW 28 46 15 25 1009.6 1008.3 0.0
24/04:30pm 26.3 19.4 2.3 21 11.9 NW 28 44 15 24 1009.6 1008.3 0.0
24/04:05pm 26.8 19.9 2.7 21 12.1 WNW 28 46 15 25 1009.4 1008.1 0.0
24/04:00pm 26.9 19.6 2.7 21 12.2 WNW 30 46 16 25 1009.4 1008.1 0.0
24/03:30pm 26.9 20.3 4.0 23 11.8 NW 28 46 15 25 1009.5 1008.2 0.0
24/03:00pm 27.3 19.3 3.7 22 12.1 WNW 35 54 19 29 1009.5 1008.2 0.0
24/02:37pm 27.1 19.1 3.6 22 12.0 NW 35 54 19 29 1009.6 1008.3 0.0
24/02:30pm 27.0 19.2 4.7 24 11.6 NW 35 46 19 25 1009.5 1008.2 0.0
24/02:00pm 26.2 19.0 5.7 27 10.8 NW 33 52 18 28 1009.8 1008.4 0.0
24/01:58pm 26.3 19.1 5.8 27 10.8 NW 33 52 18 28 1009.8 1008.4 0.0
24/01:30pm 26.0 18.0 5.6 27 10.7 NW 37 54 20 29 1010.2 1008.8 0.0
24/01:00pm 25.7 18.1 5.8 28 10.5 NW 35 54 19 29 1010.7 1009.4 0.0
24/12:31pm 25.6 18.3 4.7 26 10.8 NW 32 52 17 28 1011.3 1010.0 0.0
24/12:30pm 25.9 18.7 4.9 26 10.9 NW 32 48 17 26 1011.3 1010.0 0.0
24/12:24pm 25.8 19.0 4.9 26 10.8 NW 30 48 16 26 1011.4 1010.1 0.0
24/12:00pm 24.6 18.1 4.9 28 10.1 NW 28 39 15 21 1012.1 1010.7 0.0
24/11:57am 24.5 17.6 4.8 28 10.1 NW 30 48 16 26 1012.1 1010.7 0.0
24/11:30am 24.4 17.6 5.2 29 9.9 NW 30 41 16 22 1012.6 1011.3 0.0
24/11:00am 23.0 17.3 5.0 31 9.2 NW 24 35 13 19 1013.3 1012.0 0.0
24/10:30am 21.9 16.2 4.9 33 8.6 NW 24 33 13 18 1013.6 1012.3 0.0
24/10:00am 20.4 14.2 4.4 35 7.9 NW 26 35 14 19 1013.7 1012.4 0.0
24/09:30am 20.2 14.1 4.7 36 7.7 NW 26 35 14 19 1014.1 1012.8 0.0
24/09:00am 19.3 13.9 4.6 38 7.3 NW 22 37 12 20 1014.1 1012.8 0.0
24/08:30am 17.5 13.0 4.1 41 6.5 NNW 17 20 9 11 1014.1 1012.8 0.0
24/08:00am 16.7 11.5 3.7 42 6.2 NNW 20 32 11 17 1013.7 1012.4 0.0
24/07:30am 16.5 10.5 3.6 42 6.1 N 24 32 13 17 1013.3 1012.0 0.0
24/07:00am 15.1 9.0 3.0 44 5.6 N 24 30 13 16 1013.1 1011.8 0.0
24/06:30am 14.8 8.3 2.7 44 5.6 N 26 35 14 19 1012.8 1011.5 0.0
24/06:00am 14.2 8.0 2.1 44 5.5 N 24 32 13 17 1012.6 1011.3 0.0
24/05:30am 14.1 7.4 1.7 43 5.5 N 26 33 14 18 1012.6 1011.3 0.0
24/05:00am 13.5 7.9 1.5 44 5.3 N 20 28 11 15 1012.6 1011.3 0.0
24/04:30am 13.7 7.3 0.7 41 5.7 N 24 32 13 17 1012.6 1011.3 0.0
24/04:00am 13.8 7.3 0.5 40 5.8 N 24 32 13 17 1012.8 1011.5 0.0
24/03:30am 13.5 7.4 0.2 40 5.7 N 22 30 12 16 1013.1 1011.8 0.0
24/03:00am 12.6 6.8 -0.3 41 5.4 N 20 26 11 14 1013.3 1012.0 0.0
24/02:30am 12.8 6.6 -0.4 40 5.6 N 22 30 12 16 1013.5 1012.2 0.0
24/02:00am 12.8 6.6 -0.4 40 5.6 N 22 30 12 16 1013.8 1012.5 0.0
24/01:30am 13.3 7.4 -0.7 38 5.9 N 20 28 11 15 1014.2 1012.9 0.0
24/01:00am 13.4 7.5 -1.0 37 6.0 N 20 28 11 15 1014.6 1013.3 0.0
24/12:30am 13.9 8.0 -0.9 36 6.2 N 20 26 11 14 1015.0 1013.7 0.0
24/12:00am 13.7 7.9 -1.5 35 6.3 N 19 24 10 13 1015.4 1014.1 0.0
 
Date/Time
WST
Temp
°C
App
Temp
°C
Dew
Point
Rel
Hum
%
Delta-T
°C
Wind Press
QNH
hPa
Press
MSL
hPa
Rain
since 9 am
mm
Dir
 
Spd
km/h
Gust
km/h
Spd
kts
Gust
kts
23/11:30pm 13.6 7.7 -1.9 34 6.4 N 19 24 10 13 1015.7 1014.4 0.0
23/11:00pm 14.3 8.8 -2.1 32 6.8 N 17 22 9 12 1016.2 1014.9 0.0
23/10:30pm 15.1 9.6 -2.3 30 7.2 N 17 22 9 12 1016.4 1015.1 0.0
23/10:00pm 15.5 9.9 -2.9 28 7.5 N 17 20 9 11 1016.5 1015.2 0.0
23/09:30pm 15.1 10.7 -2.8 29 7.3 N 11 17 6 9 1016.8 1015.5 0.0
23/09:00pm 14.9 10.4 -3.0 29 7.3 N 11 13 6 7 1017.0 1015.7 0.0
23/08:30pm 14.1 10.0 -2.8 31 6.9 N 9 15 5 8 1017.1 1015.8 0.0
23/08:00pm 15.0 9.8 -2.4 30 7.2 NE 15 19 8 10 1017.1 1015.8 0.0
23/07:35pm 15.0 10.3 -2.0 31 7.1 NE 13 17 7 9 1017.5 1016.2 0.0
23/07:30pm 14.8 10.1 -2.1 31 7.0 NE 13 17 7 9 1017.5 1016.2 0.0
23/07:00pm 14.5 9.7 -2.4 31 6.9 NE 13 15 7 8 1017.7 1016.5 0.0
23/06:52pm 14.5 10.1 -2.4 31 6.9 NE 11 13 6 7 1017.8 1016.6 0.0

Other Formats:

Comma delimited format used in spreadsheet applications
http://www.bom.gov.au/fwo/IDW60801/IDW60801.95448.axf

JavaScript Object Notation format (JSON) in row-major order
http://www.bom.gov.au/fwo/IDW60801/IDW60801.95448.json